sensor_id;sensor_type;location;lat;lon;timestamp;temperature;humidity
5011;DHT22;2524;54.364;10.072;2023-08-12T00:02:12;20.90;99.90
5011;DHT22;2524;54.364;10.072;2023-08-12T00:04:39;20.90;99.90
5011;DHT22;2524;54.364;10.072;2023-08-12T00:07:04;20.80;99.90
5011;DHT22;2524;54.364;10.072;2023-08-12T00:09:30;21.00;99.90
5011;DHT22;2524;54.364;10.072;2023-08-12T00:11:55;20.90;99.90
5011;DHT22;2524;54.364;10.072;2023-08-12T00:14:21;20.90;99.90
5011;DHT22;2524;54.364;10.072;2023-08-12T00:16:46;20.80;99.90
5011;DHT22;2524;54.364;10.072;2023-08-12T00:19:12;20.80;99.90
5011;DHT22;2524;54.364;10.072;2023-08-12T00:21:38;20.90;99.90
5011;DHT22;2524;54.364;10.072;2023-08-12T00:24:04;20.90;99.90
5011;DHT22;2524;54.364;10.072;2023-08-12T00:26:30;20.90;99.90
5011;DHT22;2524;54.364;10.072;2023-08-12T00:28:55;21.00;99.90
5011;DHT22;2524;54.364;10.072;2023-08-12T00:31:21;20.90;99.90
5011;DHT22;2524;54.364;10.072;2023-08-12T00:33:47;20.90;99.90
5011;DHT22;2524;54.364;10.072;2023-08-12T00:36:12;20.90;99.90
5011;DHT22;2524;54.364;10.072;2023-08-12T00:38:38;20.90;99.90
5011;DHT22;2524;54.364;10.072;2023-08-12T00:41:03;20.90;99.90
5011;DHT22;2524;54.364;10.072;2023-08-12T00:43:29;20.80;99.90
5011;DHT22;2524;54.364;10.072;2023-08-12T00:45:54;20.90;99.90
5011;DHT22;2524;54.364;10.072;2023-08-12T00:48:20;20.80;99.90
5011;DHT22;2524;54.364;10.072;2023-08-12T00:50:46;20.90;99.90
5011;DHT22;2524;54.364;10.072;2023-08-12T00:53:13;20.90;99.90
5011;DHT22;2524;54.364;10.072;2023-08-12T00:55:40;20.90;99.90
5011;DHT22;2524;54.364;10.072;2023-08-12T00:58:06;20.90;99.90
5011;DHT22;2524;54.364;10.072;2023-08-12T01:00:32;20.80;99.90
5011;DHT22;2524;54.364;10.072;2023-08-12T01:02:57;20.80;99.90
5011;DHT22;2524;54.364;10.072;2023-08-12T01:05:24;20.80;99.90
5011;DHT22;2524;54.364;10.072;2023-08-12T01:07:49;20.90;99.90
5011;DHT22;2524;54.364;10.072;2023-08-12T01:10:16;20.80;99.90
5011;DHT22;2524;54.364;10.072;2023-08-12T01:12:49;20.90;99.90
5011;DHT22;2524;54.364;10.072;2023-08-12T01:15:23;20.80;99.90
5011;DHT22;2524;54.364;10.072;2023-08-12T01:17:50;20.80;99.90
5011;DHT22;2524;54.364;10.072;2023-08-12T01:20:22;20.90;99.90
5011;DHT22;2524;54.364;10.072;2023-08-12T01:23:07;20.90;99.90
5011;DHT22;2524;54.364;10.072;2023-08-12T01:25:33;20.90;99.90
5011;DHT22;2524;54.364;10.072;2023-08-12T01:27:59;20.90;99.90
5011;DHT22;2524;54.364;10.072;2023-08-12T01:30:24;21.00;99.90
5011;DHT22;2524;54.364;10.072;2023-08-12T01:33:26;20.90;99.90
5011;DHT22;2524;54.364;10.072;2023-08-12T01:38:55;20.90;99.90
5011;DHT22;2524;54.364;10.072;2023-08-12T01:41:23;20.90;99.90
5011;DHT22;2524;54.364;10.072;2023-08-12T01:43:50;20.90;99.90
5011;DHT22;2524;54.364;10.072;2023-08-12T01:46:15;20.80;99.90
5011;DHT22;2524;54.364;10.072;2023-08-12T01:48:41;20.80;99.90
5011;DHT22;2524;54.364;10.072;2023-08-12T01:51:07;20.80;99.90
5011;DHT22;2524;54.364;10.072;2023-08-12T01:53:32;20.80;99.90
5011;DHT22;2524;54.364;10.072;2023-08-12T01:55:58;20.80;99.90
5011;DHT22;2524;54.364;10.072;2023-08-12T01:58:23;20.80;99.90
5011;DHT22;2524;54.364;10.072;2023-08-12T02:00:49;20.70;99.90
5011;DHT22;2524;54.364;10.072;2023-08-12T02:03:14;20.60;99.90
5011;DHT22;2524;54.364;10.072;2023-08-12T02:05:40;20.60;99.90
5011;DHT22;2524;54.364;10.072;2023-08-12T02:08:06;20.60;99.90
5011;DHT22;2524;54.364;10.072;2023-08-12T02:10:32;20.60;99.90
5011;DHT22;2524;54.364;10.072;2023-08-12T02:12:57;20.60;99.90
5011;DHT22;2524;54.364;10.072;2023-08-12T02:15:23;20.60;99.90
5011;DHT22;2524;54.364;10.072;2023-08-12T02:17:49;20.60;99.90
5011;DHT22;2524;54.364;10.072;2023-08-12T02:20:14;20.60;99.90
5011;DHT22;2524;54.364;10.072;2023-08-12T02:22:40;20.60;99.90
5011;DHT22;2524;54.364;10.072;2023-08-12T02:25:05;20.60;99.90
5011;DHT22;2524;54.364;10.072;2023-08-12T02:27:31;20.60;99.90
5011;DHT22;2524;54.364;10.072;2023-08-12T02:29:56;20.50;99.90
5011;DHT22;2524;54.364;10.072;2023-08-12T02:32:22;20.50;99.90
5011;DHT22;2524;54.364;10.072;2023-08-12T02:34:47;20.50;99.90
5011;DHT22;2524;54.364;10.072;2023-08-12T02:37:13;20.50;99.90
5011;DHT22;2524;54.364;10.072;2023-08-12T02:39:39;20.60;99.90
5011;DHT22;2524;54.364;10.072;2023-08-12T02:42:04;20.50;99.90
5011;DHT22;2524;54.364;10.072;2023-08-12T02:44:30;20.60;99.90
5011;DHT22;2524;54.364;10.072;2023-08-12T02:46:56;20.50;99.90
5011;DHT22;2524;54.364;10.072;2023-08-12T02:49:21;20.50;99.90
5011;DHT22;2524;54.364;10.072;2023-08-12T02:51:47;20.50;99.90
5011;DHT22;2524;54.364;10.072;2023-08-12T02:54:12;20.50;99.90
5011;DHT22;2524;54.364;10.072;2023-08-12T02:56:38;20.40;99.90
5011;DHT22;2524;54.364;10.072;2023-08-12T02:59:03;20.50;99.90
5011;DHT22;2524;54.364;10.072;2023-08-12T03:01:29;20.30;99.90
5011;DHT22;2524;54.364;10.072;2023-08-12T03:03:55;20.30;99.90
5011;DHT22;2524;54.364;10.072;2023-08-12T03:06:21;20.30;99.90
5011;DHT22;2524;54.364;10.072;2023-08-12T03:08:46;20.30;99.90
5011;DHT22;2524;54.364;10.072;2023-08-12T03:11:12;20.40;99.90
5011;DHT22;2524;54.364;10.072;2023-08-12T03:13:37;20.40;99.90
5011;DHT22;2524;54.364;10.072;2023-08-12T03:16:03;20.40;99.90
5011;DHT22;2524;54.364;10.072;2023-08-12T03:18:29;20.30;99.90
5011;DHT22;2524;54.364;10.072;2023-08-12T03:20:54;20.40;99.90
5011;DHT22;2524;54.364;10.072;2023-08-12T03:23:20;20.30;99.90
5011;DHT22;2524;54.364;10.072;2023-08-12T03:25:49;20.30;99.90
5011;DHT22;2524;54.364;10.072;2023-08-12T03:28:14;20.30;99.90
5011;DHT22;2524;54.364;10.072;2023-08-12T03:30:40;20.30;99.90
5011;DHT22;2524;54.364;10.072;2023-08-12T03:33:05;20.30;99.90
5011;DHT22;2524;54.364;10.072;2023-08-12T03:35:31;20.30;99.90
5011;DHT22;2524;54.364;10.072;2023-08-12T03:37:57;20.40;99.90
5011;DHT22;2524;54.364;10.072;2023-08-12T03:40:22;20.40;99.90
5011;DHT22;2524;54.364;10.072;2023-08-12T03:42:48;20.50;99.90
5011;DHT22;2524;54.364;10.072;2023-08-12T03:45:13;20.40;99.90
5011;DHT22;2524;54.364;10.072;2023-08-12T03:47:39;20.40;99.90
5011;DHT22;2524;54.364;10.072;2023-08-12T03:50:05;20.50;99.90
5011;DHT22;2524;54.364;10.072;2023-08-12T03:52:31;20.40;99.90
5011;DHT22;2524;54.364;10.072;2023-08-12T03:54:57;20.40;99.90
5011;DHT22;2524;54.364;10.072;2023-08-12T03:57:23;20.40;99.90
5011;DHT22;2524;54.364;10.072;2023-08-12T03:59:48;20.40;99.90
5011;DHT22;2524;54.364;10.072;2023-08-12T04:02:14;20.30;99.90
5011;DHT22;2524;54.364;10.072;2023-08-12T04:04:39;20.30;99.90
5011;DHT22;2524;54.364;10.072;2023-08-12T04:07:05;20.30;99.90
5011;DHT22;2524;54.364;10.072;2023-08-12T04:09:31;20.30;99.90
5011;DHT22;2524;54.364;10.072;2023-08-12T04:11:56;20.20;99.90
5011;DHT22;2524;54.364;10.072;2023-08-12T04:14:22;20.20;99.90
5011;DHT22;2524;54.364;10.072;2023-08-12T04:16:47;20.10;99.90
5011;DHT22;2524;54.364;10.072;2023-08-12T04:19:13;20.10;99.90
5011;DHT22;2524;54.364;10.072;2023-08-12T04:21:38;20.10;99.90
5011;DHT22;2524;54.364;10.072;2023-08-12T04:24:04;20.10;99.90
5011;DHT22;2524;54.364;10.072;2023-08-12T04:26:30;20.00;99.90
5011;DHT22;2524;54.364;10.072;2023-08-12T04:28:55;20.00;99.90
5011;DHT22;2524;54.364;10.072;2023-08-12T04:31:21;20.00;99.90
5011;DHT22;2524;54.364;10.072;2023-08-12T04:33:46;20.00;99.90
5011;DHT22;2524;54.364;10.072;2023-08-12T04:36:12;20.10;99.90
5011;DHT22;2524;54.364;10.072;2023-08-12T04:38:38;20.00;99.90
5011;DHT22;2524;54.364;10.072;2023-08-12T04:41:04;20.00;99.90
5011;DHT22;2524;54.364;10.072;2023-08-12T04:43:30;20.10;99.90
5011;DHT22;2524;54.364;10.072;2023-08-12T04:45:55;20.00;99.90
5011;DHT22;2524;54.364;10.072;2023-08-12T04:48:21;20.00;99.90
5011;DHT22;2524;54.364;10.072;2023-08-12T04:50:46;20.00;99.90
5011;DHT22;2524;54.364;10.072;2023-08-12T04:53:12;20.10;99.90
5011;DHT22;2524;54.364;10.072;2023-08-12T04:55:38;20.10;99.90
5011;DHT22;2524;54.364;10.072;2023-08-12T04:58:03;19.90;99.90
5011;DHT22;2524;54.364;10.072;2023-08-12T05:00:30;20.10;99.90
5011;DHT22;2524;54.364;10.072;2023-08-12T05:02:55;20.10;99.90
5011;DHT22;2524;54.364;10.072;2023-08-12T05:05:21;20.00;99.90
5011;DHT22;2524;54.364;10.072;2023-08-12T05:07:46;20.00;99.90
5011;DHT22;2524;54.364;10.072;2023-08-12T05:10:15;19.90;99.90
5011;DHT22;2524;54.364;10.072;2023-08-12T05:12:45;20.00;99.90
5011;DHT22;2524;54.364;10.072;2023-08-12T05:15:11;20.00;99.90
5011;DHT22;2524;54.364;10.072;2023-08-12T05:17:37;20.00;99.90
5011;DHT22;2524;54.364;10.072;2023-08-12T05:20:03;20.00;99.90
5011;DHT22;2524;54.364;10.072;2023-08-12T05:22:29;20.10;99.90
5011;DHT22;2524;54.364;10.072;2023-08-12T05:24:54;20.10;99.90
5011;DHT22;2524;54.364;10.072;2023-08-12T05:27:20;20.10;99.90
5011;DHT22;2524;54.364;10.072;2023-08-12T05:29:45;20.10;99.90
5011;DHT22;2524;54.364;10.072;2023-08-12T05:32:11;20.20;99.90
5011;DHT22;2524;54.364;10.072;2023-08-12T05:34:36;20.10;99.90
5011;DHT22;2524;54.364;10.072;2023-08-12T05:37:02;20.00;99.90
5011;DHT22;2524;54.364;10.072;2023-08-12T05:39:28;20.00;99.90
5011;DHT22;2524;54.364;10.072;2023-08-12T05:41:53;20.10;99.90
5011;DHT22;2524;54.364;10.072;2023-08-12T05:44:19;20.20;99.90
5011;DHT22;2524;54.364;10.072;2023-08-12T05:46:44;20.10;99.90
5011;DHT22;2524;54.364;10.072;2023-08-12T05:49:11;20.10;99.90
5011;DHT22;2524;54.364;10.072;2023-08-12T05:51:36;20.10;99.90
5011;DHT22;2524;54.364;10.072;2023-08-12T05:54:04;20.10;99.90
5011;DHT22;2524;54.364;10.072;2023-08-12T05:56:29;20.10;99.90
5011;DHT22;2524;54.364;10.072;2023-08-12T05:58:55;20.10;99.90
5011;DHT22;2524;54.364;10.072;2023-08-12T06:01:20;20.10;99.90
5011;DHT22;2524;54.364;10.072;2023-08-12T06:03:46;20.10;99.90
5011;DHT22;2524;54.364;10.072;2023-08-12T06:06:11;20.10;99.90
5011;DHT22;2524;54.364;10.072;2023-08-12T06:08:37;20.00;99.90
5011;DHT22;2524;54.364;10.072;2023-08-12T06:11:03;20.10;99.90
5011;DHT22;2524;54.364;10.072;2023-08-12T06:13:28;20.10;99.90
5011;DHT22;2524;54.364;10.072;2023-08-12T06:15:54;20.00;99.90
5011;DHT22;2524;54.364;10.072;2023-08-12T06:18:19;20.00;99.90
5011;DHT22;2524;54.364;10.072;2023-08-12T06:20:45;19.90;99.90
5011;DHT22;2524;54.364;10.072;2023-08-12T06:23:10;20.00;99.90
5011;DHT22;2524;54.364;10.072;2023-08-12T06:25:36;19.90;99.90
5011;DHT22;2524;54.364;10.072;2023-08-12T06:28:02;20.00;99.90
5011;DHT22;2524;54.364;10.072;2023-08-12T06:30:30;19.90;99.90
5011;DHT22;2524;54.364;10.072;2023-08-12T06:32:56;19.90;99.90
5011;DHT22;2524;54.364;10.072;2023-08-12T06:35:21;19.90;99.90
5011;DHT22;2524;54.364;10.072;2023-08-12T06:37:47;19.90;99.90
5011;DHT22;2524;54.364;10.072;2023-08-12T06:40:13;20.00;99.90
5011;DHT22;2524;54.364;10.072;2023-08-12T06:42:38;19.90;99.90
5011;DHT22;2524;54.364;10.072;2023-08-12T06:45:04;19.90;99.90
5011;DHT22;2524;54.364;10.072;2023-08-12T06:47:30;19.90;99.90
5011;DHT22;2524;54.364;10.072;2023-08-12T06:49:56;19.90;99.90
5011;DHT22;2524;54.364;10.072;2023-08-12T06:52:22;19.90;99.90
5011;DHT22;2524;54.364;10.072;2023-08-12T06:54:47;19.90;99.90
5011;DHT22;2524;54.364;10.072;2023-08-12T06:57:14;20.00;99.90
5011;DHT22;2524;54.364;10.072;2023-08-12T06:59:40;20.00;99.90
5011;DHT22;2524;54.364;10.072;2023-08-12T07:02:06;19.90;99.90
5011;DHT22;2524;54.364;10.072;2023-08-12T07:04:32;19.90;99.90
5011;DHT22;2524;54.364;10.072;2023-08-12T07:06:58;20.00;99.90
5011;DHT22;2524;54.364;10.072;2023-08-12T07:09:24;20.00;99.90
5011;DHT22;2524;54.364;10.072;2023-08-12T07:11:49;20.00;99.90
5011;DHT22;2524;54.364;10.072;2023-08-12T07:14:15;20.00;99.90
5011;DHT22;2524;54.364;10.072;2023-08-12T07:16:40;19.90;99.90
5011;DHT22;2524;54.364;10.072;2023-08-12T07:19:06;20.00;99.90
5011;DHT22;2524;54.364;10.072;2023-08-12T07:21:31;20.00;99.90
5011;DHT22;2524;54.364;10.072;2023-08-12T07:23:57;20.00;99.90
5011;DHT22;2524;54.364;10.072;2023-08-12T07:26:22;20.00;99.90
5011;DHT22;2524;54.364;10.072;2023-08-12T07:28:48;20.00;99.90
5011;DHT22;2524;54.364;10.072;2023-08-12T07:31:14;20.10;99.90
5011;DHT22;2524;54.364;10.072;2023-08-12T07:33:39;20.00;99.90
5011;DHT22;2524;54.364;10.072;2023-08-12T07:36:05;20.10;99.90
5011;DHT22;2524;54.364;10.072;2023-08-12T07:38:31;20.10;99.90
5011;DHT22;2524;54.364;10.072;2023-08-12T07:40:57;20.00;99.90
5011;DHT22;2524;54.364;10.072;2023-08-12T07:43:22;20.00;99.90
5011;DHT22;2524;54.364;10.072;2023-08-12T07:45:54;19.90;99.90
5011;DHT22;2524;54.364;10.072;2023-08-12T07:48:20;19.90;99.90
5011;DHT22;2524;54.364;10.072;2023-08-12T07:50:46;19.90;99.90
5011;DHT22;2524;54.364;10.072;2023-08-12T07:53:14;19.90;99.90
5011;DHT22;2524;54.364;10.072;2023-08-12T07:55:41;19.90;99.90
5011;DHT22;2524;54.364;10.072;2023-08-12T07:58:06;20.00;99.90
5011;DHT22;2524;54.364;10.072;2023-08-12T08:00:33;19.80;99.90
5011;DHT22;2524;54.364;10.072;2023-08-12T08:02:58;19.90;99.90
5011;DHT22;2524;54.364;10.072;2023-08-12T08:05:24;19.80;99.90
5011;DHT22;2524;54.364;10.072;2023-08-12T08:07:49;19.80;99.90
5011;DHT22;2524;54.364;10.072;2023-08-12T08:10:15;19.90;99.90
5011;DHT22;2524;54.364;10.072;2023-08-12T08:12:41;19.80;99.90
5011;DHT22;2524;54.364;10.072;2023-08-12T08:15:06;19.80;99.90
5011;DHT22;2524;54.364;10.072;2023-08-12T08:17:32;19.80;99.90
5011;DHT22;2524;54.364;10.072;2023-08-12T08:19:58;19.80;99.90
5011;DHT22;2524;54.364;10.072;2023-08-12T08:22:23;19.90;99.90
5011;DHT22;2524;54.364;10.072;2023-08-12T08:24:49;19.80;99.90
5011;DHT22;2524;54.364;10.072;2023-08-12T08:27:14;19.80;99.90
5011;DHT22;2524;54.364;10.072;2023-08-12T08:29:40;19.90;99.90
5011;DHT22;2524;54.364;10.072;2023-08-12T08:32:06;19.80;99.90
5011;DHT22;2524;54.364;10.072;2023-08-12T08:34:31;19.80;99.90
5011;DHT22;2524;54.364;10.072;2023-08-12T08:36:57;19.80;99.90
5011;DHT22;2524;54.364;10.072;2023-08-12T08:39:22;19.80;99.90
5011;DHT22;2524;54.364;10.072;2023-08-12T08:41:48;19.90;99.90
5011;DHT22;2524;54.364;10.072;2023-08-12T08:44:15;20.00;99.90
5011;DHT22;2524;54.364;10.072;2023-08-12T08:46:42;20.00;99.90
5011;DHT22;2524;54.364;10.072;2023-08-12T08:49:09;19.90;99.90
5011;DHT22;2524;54.364;10.072;2023-08-12T08:51:35;20.00;99.90
5011;DHT22;2524;54.364;10.072;2023-08-12T08:54:04;20.00;99.90
5011;DHT22;2524;54.364;10.072;2023-08-12T08:56:31;20.00;99.90
5011;DHT22;2524;54.364;10.072;2023-08-12T08:58:58;20.00;99.90
5011;DHT22;2524;54.364;10.072;2023-08-12T09:01:23;20.10;99.90
5011;DHT22;2524;54.364;10.072;2023-08-12T09:03:51;20.10;99.90
5011;DHT22;2524;54.364;10.072;2023-08-12T09:06:23;20.10;99.90
5011;DHT22;2524;54.364;10.072;2023-08-12T09:08:51;20.20;99.90
5011;DHT22;2524;54.364;10.072;2023-08-12T09:11:18;20.30;99.90
5011;DHT22;2524;54.364;10.072;2023-08-12T09:13:44;20.20;99.90
5011;DHT22;2524;54.364;10.072;2023-08-12T09:16:09;20.20;99.90
5011;DHT22;2524;54.364;10.072;2023-08-12T09:18:36;20.30;99.90
5011;DHT22;2524;54.364;10.072;2023-08-12T09:21:02;20.40;99.90
5011;DHT22;2524;54.364;10.072;2023-08-12T09:23:28;20.30;99.90
5011;DHT22;2524;54.364;10.072;2023-08-12T09:25:53;20.40;99.90
5011;DHT22;2524;54.364;10.072;2023-08-12T09:28:19;20.60;99.90
5011;DHT22;2524;54.364;10.072;2023-08-12T09:30:50;20.70;99.90
5011;DHT22;2524;54.364;10.072;2023-08-12T09:33:24;20.90;99.90
5011;DHT22;2524;54.364;10.072;2023-08-12T09:35:50;21.00;99.90
5011;DHT22;2524;54.364;10.072;2023-08-12T09:38:16;21.10;99.90
5011;DHT22;2524;54.364;10.072;2023-08-12T09:40:42;21.20;99.90
5011;DHT22;2524;54.364;10.072;2023-08-12T09:43:08;21.30;99.90
5011;DHT22;2524;54.364;10.072;2023-08-12T09:45:34;21.50;99.90
5011;DHT22;2524;54.364;10.072;2023-08-12T09:48:00;21.50;99.90
5011;DHT22;2524;54.364;10.072;2023-08-12T09:50:27;21.50;99.90
5011;DHT22;2524;54.364;10.072;2023-08-12T09:52:54;21.50;99.90
5011;DHT22;2524;54.364;10.072;2023-08-12T09:55:22;21.50;99.90
5011;DHT22;2524;54.364;10.072;2023-08-12T09:57:53;21.40;99.90
5011;DHT22;2524;54.364;10.072;2023-08-12T10:00:21;21.40;99.90
5011;DHT22;2524;54.364;10.072;2023-08-12T10:02:48;21.50;99.90
5011;DHT22;2524;54.364;10.072;2023-08-12T10:05:19;21.50;99.90
5011;DHT22;2524;54.364;10.072;2023-08-12T10:07:47;21.40;99.90
5011;DHT22;2524;54.364;10.072;2023-08-12T10:10:14;21.40;99.90
5011;DHT22;2524;54.364;10.072;2023-08-12T10:12:40;21.40;99.90
5011;DHT22;2524;54.364;10.072;2023-08-12T10:15:07;21.40;99.90
5011;DHT22;2524;54.364;10.072;2023-08-12T10:17:34;21.40;99.90
5011;DHT22;2524;54.364;10.072;2023-08-12T10:20:03;21.40;99.90
5011;DHT22;2524;54.364;10.072;2023-08-12T10:22:30;21.50;99.90
5011;DHT22;2524;54.364;10.072;2023-08-12T10:24:59;21.50;99.90
5011;DHT22;2524;54.364;10.072;2023-08-12T10:27:26;21.50;99.90
5011;DHT22;2524;54.364;10.072;2023-08-12T10:29:52;21.40;99.90
5011;DHT22;2524;54.364;10.072;2023-08-12T10:32:17;21.40;99.90
5011;DHT22;2524;54.364;10.072;2023-08-12T10:34:43;21.50;99.90
5011;DHT22;2524;54.364;10.072;2023-08-12T10:37:10;21.50;99.90
5011;DHT22;2524;54.364;10.072;2023-08-12T10:39:36;21.50;99.90
5011;DHT22;2524;54.364;10.072;2023-08-12T10:42:02;21.50;99.90
5011;DHT22;2524;54.364;10.072;2023-08-12T10:44:50;21.60;99.90
5011;DHT22;2524;54.364;10.072;2023-08-12T10:47:16;21.50;99.90
5011;DHT22;2524;54.364;10.072;2023-08-12T10:49:49;21.50;99.90
5011;DHT22;2524;54.364;10.072;2023-08-12T10:52:31;21.50;99.90
5011;DHT22;2524;54.364;10.072;2023-08-12T10:55:23;21.50;99.90
5011;DHT22;2524;54.364;10.072;2023-08-12T10:57:50;21.60;99.90
5011;DHT22;2524;54.364;10.072;2023-08-12T11:00:18;21.70;99.90
5011;DHT22;2524;54.364;10.072;2023-08-12T11:02:50;21.60;99.90
5011;DHT22;2524;54.364;10.072;2023-08-12T11:05:16;21.60;99.90
5011;DHT22;2524;54.364;10.072;2023-08-12T11:07:56;21.60;99.90
5011;DHT22;2524;54.364;10.072;2023-08-12T11:10:33;21.60;99.90
5011;DHT22;2524;54.364;10.072;2023-08-12T11:12:59;21.60;99.90
5011;DHT22;2524;54.364;10.072;2023-08-12T11:18:10;21.60;99.90
5011;DHT22;2524;54.364;10.072;2023-08-12T11:20:38;21.60;99.90
5011;DHT22;2524;54.364;10.072;2023-08-12T11:23:07;21.50;99.90
5011;DHT22;2524;54.364;10.072;2023-08-12T11:25:35;21.50;99.90
5011;DHT22;2524;54.364;10.072;2023-08-12T11:28:01;21.50;99.90
5011;DHT22;2524;54.364;10.072;2023-08-12T11:30:27;21.50;99.90
5011;DHT22;2524;54.364;10.072;2023-08-12T11:32:54;21.50;99.90
5011;DHT22;2524;54.364;10.072;2023-08-12T11:35:20;21.50;99.90
5011;DHT22;2524;54.364;10.072;2023-08-12T11:37:48;21.50;99.90
5011;DHT22;2524;54.364;10.072;2023-08-12T11:40:16;21.40;99.90
5011;DHT22;2524;54.364;10.072;2023-08-12T11:42:47;21.40;99.90
5011;DHT22;2524;54.364;10.072;2023-08-12T11:45:15;21.50;99.90
5011;DHT22;2524;54.364;10.072;2023-08-12T11:47:41;21.40;99.90
5011;DHT22;2524;54.364;10.072;2023-08-12T11:50:10;21.40;99.90
5011;DHT22;2524;54.364;10.072;2023-08-12T11:52:37;21.40;99.90
5011;DHT22;2524;54.364;10.072;2023-08-12T11:55:03;21.30;99.90
5011;DHT22;2524;54.364;10.072;2023-08-12T11:57:30;21.30;99.90
5011;DHT22;2524;54.364;10.072;2023-08-12T12:00:03;21.30;99.90
5011;DHT22;2524;54.364;10.072;2023-08-12T12:02:30;21.30;99.90
5011;DHT22;2524;54.364;10.072;2023-08-12T12:04:56;21.20;99.90
5011;DHT22;2524;54.364;10.072;2023-08-12T12:07:23;21.20;99.90
5011;DHT22;2524;54.364;10.072;2023-08-12T12:09:53;21.10;99.90
5011;DHT22;2524;54.364;10.072;2023-08-12T12:12:25;21.10;99.90
5011;DHT22;2524;54.364;10.072;2023-08-12T12:14:55;21.20;99.90
5011;DHT22;2524;54.364;10.072;2023-08-12T12:17:21;21.10;99.90
5011;DHT22;2524;54.364;10.072;2023-08-12T12:19:54;21.00;99.90
5011;DHT22;2524;54.364;10.072;2023-08-12T12:22:25;21.00;99.90
5011;DHT22;2524;54.364;10.072;2023-08-12T12:24:51;21.00;99.90
5011;DHT22;2524;54.364;10.072;2023-08-12T12:27:16;21.10;99.90
5011;DHT22;2524;54.364;10.072;2023-08-12T12:29:42;21.00;99.90
5011;DHT22;2524;54.364;10.072;2023-08-12T12:32:10;20.90;99.90
5011;DHT22;2524;54.364;10.072;2023-08-12T12:34:35;20.90;99.90
5011;DHT22;2524;54.364;10.072;2023-08-12T12:37:01;20.90;99.90
5011;DHT22;2524;54.364;10.072;2023-08-12T12:39:26;20.90;99.90
5011;DHT22;2524;54.364;10.072;2023-08-12T12:41:52;21.00;99.90
5011;DHT22;2524;54.364;10.072;2023-08-12T12:44:17;20.90;99.90
5011;DHT22;2524;54.364;10.072;2023-08-12T12:46:43;20.90;99.90
5011;DHT22;2524;54.364;10.072;2023-08-12T12:49:08;21.00;99.90
5011;DHT22;2524;54.364;10.072;2023-08-12T12:51:34;20.90;99.90
5011;DHT22;2524;54.364;10.072;2023-08-12T12:53:59;20.90;99.90
5011;DHT22;2524;54.364;10.072;2023-08-12T12:56:25;20.90;99.90
5011;DHT22;2524;54.364;10.072;2023-08-12T12:58:51;20.90;99.90
5011;DHT22;2524;54.364;10.072;2023-08-12T13:01:16;20.80;99.90
5011;DHT22;2524;54.364;10.072;2023-08-12T13:03:42;20.80;99.90
5011;DHT22;2524;54.364;10.072;2023-08-12T13:06:07;20.80;99.90
5011;DHT22;2524;54.364;10.072;2023-08-12T13:08:33;20.70;99.90
5011;DHT22;2524;54.364;10.072;2023-08-12T13:10:59;20.80;99.90
5011;DHT22;2524;54.364;10.072;2023-08-12T13:13:24;20.70;99.90
5011;DHT22;2524;54.364;10.072;2023-08-12T13:15:50;20.70;99.90
5011;DHT22;2524;54.364;10.072;2023-08-12T13:18:16;20.70;99.90
5011;DHT22;2524;54.364;10.072;2023-08-12T13:20:42;20.60;99.90
5011;DHT22;2524;54.364;10.072;2023-08-12T13:23:07;20.60;99.90
5011;DHT22;2524;54.364;10.072;2023-08-12T13:25:33;20.50;99.90
5011;DHT22;2524;54.364;10.072;2023-08-12T13:28:03;20.50;99.90
5011;DHT22;2524;54.364;10.072;2023-08-12T13:30:30;20.50;99.90
5011;DHT22;2524;54.364;10.072;2023-08-12T13:32:56;20.70;99.90
5011;DHT22;2524;54.364;10.072;2023-08-12T13:35:22;20.50;99.90
5011;DHT22;2524;54.364;10.072;2023-08-12T13:37:49;20.50;99.90
5011;DHT22;2524;54.364;10.072;2023-08-12T13:40:15;20.50;99.90
5011;DHT22;2524;54.364;10.072;2023-08-12T13:42:41;20.60;99.90
5011;DHT22;2524;54.364;10.072;2023-08-12T13:45:07;20.50;99.90
5011;DHT22;2524;54.364;10.072;2023-08-12T13:47:36;20.50;99.90
5011;DHT22;2524;54.364;10.072;2023-08-12T13:50:02;20.50;99.90
5011;DHT22;2524;54.364;10.072;2023-08-12T13:52:28;20.50;99.90
5011;DHT22;2524;54.364;10.072;2023-08-12T13:54:53;20.60;99.90
5011;DHT22;2524;54.364;10.072;2023-08-12T13:57:19;20.50;99.90
5011;DHT22;2524;54.364;10.072;2023-08-12T13:59:44;20.60;99.90
5011;DHT22;2524;54.364;10.072;2023-08-12T14:02:10;20.60;99.90
5011;DHT22;2524;54.364;10.072;2023-08-12T14:04:36;20.60;99.90
5011;DHT22;2524;54.364;10.072;2023-08-12T14:07:03;20.60;99.90
5011;DHT22;2524;54.364;10.072;2023-08-12T14:09:29;20.60;99.90
5011;DHT22;2524;54.364;10.072;2023-08-12T14:11:54;20.60;99.90
5011;DHT22;2524;54.364;10.072;2023-08-12T14:14:20;20.70;99.90
5011;DHT22;2524;54.364;10.072;2023-08-12T14:16:46;20.60;99.90
5011;DHT22;2524;54.364;10.072;2023-08-12T14:19:11;20.60;99.90
5011;DHT22;2524;54.364;10.072;2023-08-12T14:21:37;20.60;99.90
5011;DHT22;2524;54.364;10.072;2023-08-12T14:24:02;20.70;99.90
5011;DHT22;2524;54.364;10.072;2023-08-12T14:26:28;20.50;99.90
5011;DHT22;2524;54.364;10.072;2023-08-12T14:28:54;20.50;99.90
5011;DHT22;2524;54.364;10.072;2023-08-12T14:31:19;20.60;99.90
5011;DHT22;2524;54.364;10.072;2023-08-12T14:33:45;20.50;99.90
5011;DHT22;2524;54.364;10.072;2023-08-12T14:36:11;20.50;99.90
5011;DHT22;2524;54.364;10.072;2023-08-12T14:38:36;20.50;99.90
5011;DHT22;2524;54.364;10.072;2023-08-12T14:41:02;20.60;99.90
5011;DHT22;2524;54.364;10.072;2023-08-12T14:43:27;20.60;99.90
5011;DHT22;2524;54.364;10.072;2023-08-12T14:45:53;20.70;99.90
5011;DHT22;2524;54.364;10.072;2023-08-12T14:48:18;20.60;99.90
5011;DHT22;2524;54.364;10.072;2023-08-12T14:50:44;20.60;99.90
5011;DHT22;2524;54.364;10.072;2023-08-12T14:53:10;20.60;99.90
5011;DHT22;2524;54.364;10.072;2023-08-12T14:55:36;20.70;99.90
5011;DHT22;2524;54.364;10.072;2023-08-12T14:58:01;20.80;99.90
5011;DHT22;2524;54.364;10.072;2023-08-12T15:00:27;20.70;99.90
5011;DHT22;2524;54.364;10.072;2023-08-12T15:02:52;20.70;99.90
5011;DHT22;2524;54.364;10.072;2023-08-12T15:05:18;20.70;99.90
5011;DHT22;2524;54.364;10.072;2023-08-12T15:07:44;20.70;99.90
5011;DHT22;2524;54.364;10.072;2023-08-12T15:10:09;20.80;99.90
5011;DHT22;2524;54.364;10.072;2023-08-12T15:12:35;20.80;99.90
5011;DHT22;2524;54.364;10.072;2023-08-12T15:15:01;20.70;99.90
5011;DHT22;2524;54.364;10.072;2023-08-12T15:17:27;20.80;99.90
5011;DHT22;2524;54.364;10.072;2023-08-12T15:19:52;20.80;99.90
5011;DHT22;2524;54.364;10.072;2023-08-12T15:22:18;20.70;99.90
5011;DHT22;2524;54.364;10.072;2023-08-12T15:24:44;20.90;99.90
5011;DHT22;2524;54.364;10.072;2023-08-12T15:27:09;20.80;99.90
5011;DHT22;2524;54.364;10.072;2023-08-12T15:29:35;20.80;99.90
5011;DHT22;2524;54.364;10.072;2023-08-12T15:32:00;20.80;99.90
5011;DHT22;2524;54.364;10.072;2023-08-12T15:34:26;20.80;99.90
5011;DHT22;2524;54.364;10.072;2023-08-12T15:36:52;20.90;99.90
5011;DHT22;2524;54.364;10.072;2023-08-12T15:39:19;20.70;99.90
5011;DHT22;2524;54.364;10.072;2023-08-12T15:41:44;20.80;99.90
5011;DHT22;2524;54.364;10.072;2023-08-12T15:44:11;20.90;99.90
5011;DHT22;2524;54.364;10.072;2023-08-12T15:46:37;20.80;99.90